sensor_id;sensor_type;location;lat;lon;timestamp;P1;durP1;ratioP1;P2;durP2;ratioP2
12814;SDS011;6472;52.328;13.070;2022-10-16T00:00:58;2.47;;;1.80;;
12814;SDS011;6472;52.328;13.070;2022-10-16T00:03:31;3.17;;;2.30;;
12814;SDS011;6472;52.328;13.070;2022-10-16T00:05:59;3.70;;;2.27;;
12814;SDS011;6472;52.328;13.070;2022-10-16T00:08:28;2.40;;;2.20;;
12814;SDS011;6472;52.328;13.070;2022-10-16T00:11:00;2.83;;;2.50;;
12814;SDS011;6472;52.328;13.070;2022-10-16T00:13:30;4.70;;;2.57;;
12814;SDS011;6472;52.328;13.070;2022-10-16T00:15:59;2.97;;;1.90;;
12814;SDS011;6472;52.328;13.070;2022-10-16T00:18:28;2.97;;;2.57;;
12814;SDS011;6472;52.328;13.070;2022-10-16T00:21:00;3.77;;;2.70;;
12814;SDS011;6472;52.328;13.070;2022-10-16T00:23:29;2.57;;;2.07;;
12814;SDS011;6472;52.328;13.070;2022-10-16T00:25:58;3.27;;;2.47;;
12814;SDS011;6472;52.328;13.070;2022-10-16T00:28:27;3.97;;;2.50;;
12814;SDS011;6472;52.328;13.070;2022-10-16T00:30:57;3.07;;;2.37;;
12814;SDS011;6472;52.328;13.070;2022-10-16T00:33:26;3.93;;;2.13;;
12814;SDS011;6472;52.328;13.070;2022-10-16T00:35:54;3.07;;;1.93;;
12814;SDS011;6472;52.328;13.070;2022-10-16T00:38:24;7.13;;;2.43;;
12814;SDS011;6472;52.328;13.070;2022-10-16T00:40:52;4.40;;;2.40;;
12814;SDS011;6472;52.328;13.070;2022-10-16T00:43:34;3.10;;;1.83;;
12814;SDS011;6472;52.328;13.070;2022-10-16T00:46:08;3.87;;;2.20;;
12814;SDS011;6472;52.328;13.070;2022-10-16T00:48:42;2.00;;;1.80;;
12814;SDS011;6472;52.328;13.070;2022-10-16T00:51:23;5.10;;;2.17;;
12814;SDS011;6472;52.328;13.070;2022-10-16T00:53:55;9.13;;;2.50;;
12814;SDS011;6472;52.328;13.070;2022-10-16T00:56:24;2.53;;;1.90;;
12814;SDS011;6472;52.328;13.070;2022-10-16T00:58:52;2.00;;;1.80;;
12814;SDS011;6472;52.328;13.070;2022-10-16T01:01:21;1.97;;;1.53;;
12814;SDS011;6472;52.328;13.070;2022-10-16T01:03:49;3.13;;;1.83;;
12814;SDS011;6472;52.328;13.070;2022-10-16T01:06:20;1.60;;;1.50;;
12814;SDS011;6472;52.328;13.070;2022-10-16T01:09:06;2.30;;;1.63;;
12814;SDS011;6472;52.328;13.070;2022-10-16T01:11:44;4.37;;;1.20;;
12814;SDS011;6472;52.328;13.070;2022-10-16T01:14:19;1.37;;;1.27;;
12814;SDS011;6472;52.328;13.070;2022-10-16T01:16:55;1.57;;;1.40;;
12814;SDS011;6472;52.328;13.070;2022-10-16T01:19:36;1.50;;;1.40;;
12814;SDS011;6472;52.328;13.070;2022-10-16T01:22:17;4.20;;;1.57;;
12814;SDS011;6472;52.328;13.070;2022-10-16T01:24:49;1.63;;;1.17;;
12814;SDS011;6472;52.328;13.070;2022-10-16T01:27:19;3.60;;;1.73;;
12814;SDS011;6472;52.328;13.070;2022-10-16T01:29:52;1.73;;;1.60;;
12814;SDS011;6472;52.328;13.070;2022-10-16T01:32:23;1.67;;;1.57;;
12814;SDS011;6472;52.328;13.070;2022-10-16T01:34:58;2.10;;;1.57;;
12814;SDS011;6472;52.328;13.070;2022-10-16T01:37:32;1.20;;;1.20;;
12814;SDS011;6472;52.328;13.070;2022-10-16T01:40:05;1.20;;;1.10;;
12814;SDS011;6472;52.328;13.070;2022-10-16T01:42:38;1.30;;;1.20;;
12814;SDS011;6472;52.328;13.070;2022-10-16T01:45:11;1.70;;;1.60;;
12814;SDS011;6472;52.328;13.070;2022-10-16T01:47:44;1.80;;;1.70;;
12814;SDS011;6472;52.328;13.070;2022-10-16T01:50:14;1.40;;;1.30;;
12814;SDS011;6472;52.328;13.070;2022-10-16T01:52:45;1.40;;;1.30;;
12814;SDS011;6472;52.328;13.070;2022-10-16T01:55:17;1.03;;;1.03;;
12814;SDS011;6472;52.328;13.070;2022-10-16T01:57:51;1.93;;;1.53;;
12814;SDS011;6472;52.328;13.070;2022-10-16T02:00:21;1.80;;;1.40;;
12814;SDS011;6472;52.328;13.070;2022-10-16T02:02:51;3.83;;;1.67;;
12814;SDS011;6472;52.328;13.070;2022-10-16T02:05:22;1.33;;;1.20;;
12814;SDS011;6472;52.328;13.070;2022-10-16T02:07:54;1.33;;;1.23;;
12814;SDS011;6472;52.328;13.070;2022-10-16T02:10:25;2.93;;;1.60;;
12814;SDS011;6472;52.328;13.070;2022-10-16T02:13:00;2.93;;;1.40;;
12814;SDS011;6472;52.328;13.070;2022-10-16T02:15:32;1.50;;;1.40;;
12814;SDS011;6472;52.328;13.070;2022-10-16T02:18:00;1.27;;;1.17;;
12814;SDS011;6472;52.328;13.070;2022-10-16T02:20:30;1.20;;;1.07;;
12814;SDS011;6472;52.328;13.070;2022-10-16T02:23:04;1.20;;;1.00;;
12814;SDS011;6472;52.328;13.070;2022-10-16T02:25:34;1.40;;;1.30;;
12814;SDS011;6472;52.328;13.070;2022-10-16T02:28:09;2.43;;;1.20;;
12814;SDS011;6472;52.328;13.070;2022-10-16T02:30:43;1.87;;;1.30;;
12814;SDS011;6472;52.328;13.070;2022-10-16T02:33:14;1.00;;;1.00;;
12814;SDS011;6472;52.328;13.070;2022-10-16T02:35:44;3.20;;;1.57;;
12814;SDS011;6472;52.328;13.070;2022-10-16T02:38:14;1.50;;;1.40;;
12814;SDS011;6472;52.328;13.070;2022-10-16T02:40:43;1.37;;;1.30;;
12814;SDS011;6472;52.328;13.070;2022-10-16T02:43:13;1.20;;;1.10;;
12814;SDS011;6472;52.328;13.070;2022-10-16T02:45:42;1.30;;;1.20;;
12814;SDS011;6472;52.328;13.070;2022-10-16T02:48:10;1.20;;;1.10;;
12814;SDS011;6472;52.328;13.070;2022-10-16T02:50:38;1.30;;;1.20;;
12814;SDS011;6472;52.328;13.070;2022-10-16T02:53:06;1.10;;;1.10;;
12814;SDS011;6472;52.328;13.070;2022-10-16T02:55:34;2.10;;;1.27;;
12814;SDS011;6472;52.328;13.070;2022-10-16T02:58:02;1.10;;;1.10;;
12814;SDS011;6472;52.328;13.070;2022-10-16T03:00:31;0.93;;;0.93;;
12814;SDS011;6472;52.328;13.070;2022-10-16T03:03:00;1.20;;;1.10;;
12814;SDS011;6472;52.328;13.070;2022-10-16T03:05:28;0.93;;;0.93;;
12814;SDS011;6472;52.328;13.070;2022-10-16T03:07:56;1.30;;;1.10;;
12814;SDS011;6472;52.328;13.070;2022-10-16T03:10:26;2.40;;;0.70;;
12814;SDS011;6472;52.328;13.070;2022-10-16T03:12:54;0.90;;;0.90;;
12814;SDS011;6472;52.328;13.070;2022-10-16T03:15:22;1.40;;;1.30;;
12814;SDS011;6472;52.328;13.070;2022-10-16T03:17:52;1.17;;;1.00;;
12814;SDS011;6472;52.328;13.070;2022-10-16T03:20:20;2.90;;;1.10;;
12814;SDS011;6472;52.328;13.070;2022-10-16T03:22:48;3.40;;;1.70;;
12814;SDS011;6472;52.328;13.070;2022-10-16T03:25:16;1.87;;;1.30;;
12814;SDS011;6472;52.328;13.070;2022-10-16T03:27:44;1.10;;;1.10;;
12814;SDS011;6472;52.328;13.070;2022-10-16T03:30:12;1.00;;;0.93;;
12814;SDS011;6472;52.328;13.070;2022-10-16T03:32:40;1.07;;;1.00;;
12814;SDS011;6472;52.328;13.070;2022-10-16T03:35:10;1.70;;;1.20;;
12814;SDS011;6472;52.328;13.070;2022-10-16T03:37:38;1.30;;;1.20;;
12814;SDS011;6472;52.328;13.070;2022-10-16T03:40:07;1.40;;;1.30;;
12814;SDS011;6472;52.328;13.070;2022-10-16T03:42:36;1.33;;;1.23;;
12814;SDS011;6472;52.328;13.070;2022-10-16T03:45:04;0.97;;;0.97;;
12814;SDS011;6472;52.328;13.070;2022-10-16T03:47:33;1.43;;;1.30;;
12814;SDS011;6472;52.328;13.070;2022-10-16T03:50:01;1.33;;;1.20;;
12814;SDS011;6472;52.328;13.070;2022-10-16T03:52:32;1.30;;;1.20;;
12814;SDS011;6472;52.328;13.070;2022-10-16T03:55:00;1.30;;;1.20;;
12814;SDS011;6472;52.328;13.070;2022-10-16T03:57:28;1.07;;;1.07;;
12814;SDS011;6472;52.328;13.070;2022-10-16T03:59:56;0.97;;;0.97;;
12814;SDS011;6472;52.328;13.070;2022-10-16T04:02:24;1.33;;;1.33;;
12814;SDS011;6472;52.328;13.070;2022-10-16T04:04:52;1.00;;;0.93;;
12814;SDS011;6472;52.328;13.070;2022-10-16T04:07:20;1.13;;;1.10;;
12814;SDS011;6472;52.328;13.070;2022-10-16T04:09:50;1.00;;;0.90;;
12814;SDS011;6472;52.328;13.070;2022-10-16T04:12:18;1.30;;;1.20;;
12814;SDS011;6472;52.328;13.070;2022-10-16T04:14:46;1.13;;;1.10;;
12814;SDS011;6472;52.328;13.070;2022-10-16T04:17:14;1.23;;;1.13;;
12814;SDS011;6472;52.328;13.070;2022-10-16T04:19:43;1.20;;;1.10;;
12814;SDS011;6472;52.328;13.070;2022-10-16T04:22:11;1.20;;;1.10;;
12814;SDS011;6472;52.328;13.070;2022-10-16T04:24:40;1.30;;;1.20;;
12814;SDS011;6472;52.328;13.070;2022-10-16T04:27:10;0.83;;;0.83;;
12814;SDS011;6472;52.328;13.070;2022-10-16T04:29:38;1.27;;;1.10;;
12814;SDS011;6472;52.328;13.070;2022-10-16T04:32:07;1.00;;;1.00;;
12814;SDS011;6472;52.328;13.070;2022-10-16T04:34:35;1.10;;;1.10;;
12814;SDS011;6472;52.328;13.070;2022-10-16T04:37:04;1.33;;;1.23;;
12814;SDS011;6472;52.328;13.070;2022-10-16T04:39:32;0.80;;;0.80;;
12814;SDS011;6472;52.328;13.070;2022-10-16T04:42:00;2.03;;;1.00;;
12814;SDS011;6472;52.328;13.070;2022-10-16T04:44:30;1.23;;;1.17;;
12814;SDS011;6472;52.328;13.070;2022-10-16T04:46:58;1.03;;;1.03;;
12814;SDS011;6472;52.328;13.070;2022-10-16T04:49:26;2.70;;;1.10;;
12814;SDS011;6472;52.328;13.070;2022-10-16T04:51:54;1.10;;;1.10;;
12814;SDS011;6472;52.328;13.070;2022-10-16T04:54:22;0.90;;;0.90;;
12814;SDS011;6472;52.328;13.070;2022-10-16T04:56:50;1.03;;;1.00;;
12814;SDS011;6472;52.328;13.070;2022-10-16T04:59:19;1.30;;;1.20;;
12814;SDS011;6472;52.328;13.070;2022-10-16T05:01:49;1.90;;;1.30;;
12814;SDS011;6472;52.328;13.070;2022-10-16T05:04:18;1.40;;;1.30;;
12814;SDS011;6472;52.328;13.070;2022-10-16T05:06:45;1.00;;;1.00;;
12814;SDS011;6472;52.328;13.070;2022-10-16T05:09:15;2.23;;;1.53;;
12814;SDS011;6472;52.328;13.070;2022-10-16T05:11:43;1.30;;;1.20;;
12814;SDS011;6472;52.328;13.070;2022-10-16T05:14:11;1.00;;;1.00;;
12814;SDS011;6472;52.328;13.070;2022-10-16T05:16:40;1.30;;;1.20;;
12814;SDS011;6472;52.328;13.070;2022-10-16T05:19:09;1.00;;;1.00;;
12814;SDS011;6472;52.328;13.070;2022-10-16T05:21:54;1.57;;;1.47;;
12814;SDS011;6472;52.328;13.070;2022-10-16T05:24:22;1.23;;;1.23;;
12814;SDS011;6472;52.328;13.070;2022-10-16T05:26:50;1.90;;;1.10;;
12814;SDS011;6472;52.328;13.070;2022-10-16T05:29:18;5.50;;;1.30;;
12814;SDS011;6472;52.328;13.070;2022-10-16T05:31:49;1.00;;;1.00;;
12814;SDS011;6472;52.328;13.070;2022-10-16T05:34:19;1.67;;;1.57;;
12814;SDS011;6472;52.328;13.070;2022-10-16T05:36:48;1.00;;;1.00;;
12814;SDS011;6472;52.328;13.070;2022-10-16T05:39:16;1.37;;;1.27;;
12814;SDS011;6472;52.328;13.070;2022-10-16T05:41:44;1.30;;;1.20;;
12814;SDS011;6472;52.328;13.070;2022-10-16T05:44:12;0.97;;;0.97;;
12814;SDS011;6472;52.328;13.070;2022-10-16T05:46:40;1.80;;;1.27;;
12814;SDS011;6472;52.328;13.070;2022-10-16T05:49:08;1.27;;;1.17;;
12814;SDS011;6472;52.328;13.070;2022-10-16T05:51:37;1.30;;;1.20;;
12814;SDS011;6472;52.328;13.070;2022-10-16T05:54:06;1.27;;;1.20;;
12814;SDS011;6472;52.328;13.070;2022-10-16T05:56:34;1.63;;;1.53;;
12814;SDS011;6472;52.328;13.070;2022-10-16T05:59:02;1.77;;;1.10;;
12814;SDS011;6472;52.328;13.070;2022-10-16T06:01:31;1.37;;;1.30;;
12814;SDS011;6472;52.328;13.070;2022-10-16T06:04:00;4.33;;;1.33;;
12814;SDS011;6472;52.328;13.070;2022-10-16T06:06:28;3.10;;;1.27;;
12814;SDS011;6472;52.328;13.070;2022-10-16T06:08:58;2.70;;;1.50;;
12814;SDS011;6472;52.328;13.070;2022-10-16T06:11:27;1.83;;;1.33;;
12814;SDS011;6472;52.328;13.070;2022-10-16T06:13:56;1.43;;;1.33;;
12814;SDS011;6472;52.328;13.070;2022-10-16T06:16:28;1.63;;;1.53;;
12814;SDS011;6472;52.328;13.070;2022-10-16T06:18:56;1.80;;;1.67;;
12814;SDS011;6472;52.328;13.070;2022-10-16T06:21:25;1.63;;;1.53;;
12814;SDS011;6472;52.328;13.070;2022-10-16T06:23:55;1.67;;;1.57;;
12814;SDS011;6472;52.328;13.070;2022-10-16T06:26:25;1.70;;;1.60;;
12814;SDS011;6472;52.328;13.070;2022-10-16T06:28:55;2.77;;;1.30;;
12814;SDS011;6472;52.328;13.070;2022-10-16T06:31:25;1.50;;;1.30;;
12814;SDS011;6472;52.328;13.070;2022-10-16T06:33:57;1.53;;;1.43;;
12814;SDS011;6472;52.328;13.070;2022-10-16T06:36:25;1.60;;;1.50;;
12814;SDS011;6472;52.328;13.070;2022-10-16T06:38:53;1.57;;;1.30;;
12814;SDS011;6472;52.328;13.070;2022-10-16T06:41:22;3.37;;;1.47;;
12814;SDS011;6472;52.328;13.070;2022-10-16T06:43:51;1.70;;;1.60;;
12814;SDS011;6472;52.328;13.070;2022-10-16T06:46:20;1.50;;;1.40;;
12814;SDS011;6472;52.328;13.070;2022-10-16T06:48:49;3.27;;;1.70;;
12814;SDS011;6472;52.328;13.070;2022-10-16T06:51:19;1.63;;;1.53;;
12814;SDS011;6472;52.328;13.070;2022-10-16T06:53:49;0.93;;;0.93;;
12814;SDS011;6472;52.328;13.070;2022-10-16T06:56:29;1.23;;;1.13;;
12814;SDS011;6472;52.328;13.070;2022-10-16T06:59:00;1.53;;;1.43;;
12814;SDS011;6472;52.328;13.070;2022-10-16T07:01:28;1.53;;;1.43;;
12814;SDS011;6472;52.328;13.070;2022-10-16T07:03:56;2.60;;;1.27;;
12814;SDS011;6472;52.328;13.070;2022-10-16T07:06:25;2.63;;;1.60;;
12814;SDS011;6472;52.328;13.070;2022-10-16T07:08:54;2.40;;;2.07;;
12814;SDS011;6472;52.328;13.070;2022-10-16T07:11:22;2.47;;;1.83;;
12814;SDS011;6472;52.328;13.070;2022-10-16T07:13:51;3.20;;;2.70;;
12814;SDS011;6472;52.328;13.070;2022-10-16T07:16:23;6.27;;;3.03;;
12814;SDS011;6472;52.328;13.070;2022-10-16T07:18:53;3.67;;;2.47;;
12814;SDS011;6472;52.328;13.070;2022-10-16T07:21:25;2.80;;;2.27;;
12814;SDS011;6472;52.328;13.070;2022-10-16T07:23:55;2.37;;;2.17;;
12814;SDS011;6472;52.328;13.070;2022-10-16T07:26:26;1.77;;;1.67;;
12814;SDS011;6472;52.328;13.070;2022-10-16T07:28:55;1.80;;;1.70;;
12814;SDS011;6472;52.328;13.070;2022-10-16T07:31:25;1.87;;;1.77;;
12814;SDS011;6472;52.328;13.070;2022-10-16T07:33:53;1.63;;;1.53;;
12814;SDS011;6472;52.328;13.070;2022-10-16T07:36:22;1.53;;;1.43;;
12814;SDS011;6472;52.328;13.070;2022-10-16T07:38:50;1.40;;;1.30;;
12814;SDS011;6472;52.328;13.070;2022-10-16T07:41:24;1.80;;;1.70;;
12814;SDS011;6472;52.328;13.070;2022-10-16T07:43:52;1.83;;;1.23;;
12814;SDS011;6472;52.328;13.070;2022-10-16T07:46:21;1.47;;;1.37;;
12814;SDS011;6472;52.328;13.070;2022-10-16T07:48:51;1.20;;;1.10;;
12814;SDS011;6472;52.328;13.070;2022-10-16T07:51:20;1.47;;;1.20;;
12814;SDS011;6472;52.328;13.070;2022-10-16T07:53:50;2.03;;;1.90;;
12814;SDS011;6472;52.328;13.070;2022-10-16T07:56:18;1.60;;;1.50;;
12814;SDS011;6472;52.328;13.070;2022-10-16T07:58:47;1.33;;;1.17;;
12814;SDS011;6472;52.328;13.070;2022-10-16T08:01:17;2.27;;;1.90;;
12814;SDS011;6472;52.328;13.070;2022-10-16T08:03:46;1.30;;;1.20;;
12814;SDS011;6472;52.328;13.070;2022-10-16T08:06:17;1.10;;;1.10;;
12814;SDS011;6472;52.328;13.070;2022-10-16T08:08:53;1.50;;;1.40;;
12814;SDS011;6472;52.328;13.070;2022-10-16T08:11:21;1.60;;;1.10;;
12814;SDS011;6472;52.328;13.070;2022-10-16T08:13:49;1.87;;;1.30;;
12814;SDS011;6472;52.328;13.070;2022-10-16T08:16:17;1.17;;;1.17;;
12814;SDS011;6472;52.328;13.070;2022-10-16T08:18:45;2.57;;;1.30;;
12814;SDS011;6472;52.328;13.070;2022-10-16T08:21:14;1.33;;;1.23;;
12814;SDS011;6472;52.328;13.070;2022-10-16T08:23:46;1.67;;;1.10;;
12814;SDS011;6472;52.328;13.070;2022-10-16T08:26:23;1.83;;;1.43;;
12814;SDS011;6472;52.328;13.070;2022-10-16T08:28:52;1.00;;;0.90;;
12814;SDS011;6472;52.328;13.070;2022-10-16T08:31:20;1.13;;;1.00;;
12814;SDS011;6472;52.328;13.070;2022-10-16T08:33:49;1.27;;;1.17;;
12814;SDS011;6472;52.328;13.070;2022-10-16T08:36:20;1.60;;;1.17;;
12814;SDS011;6472;52.328;13.070;2022-10-16T08:38:48;1.53;;;1.43;;
12814;SDS011;6472;52.328;13.070;2022-10-16T08:41:32;1.30;;;1.17;;
12814;SDS011;6472;52.328;13.070;2022-10-16T08:47:20;2.58;;;1.30;;
12814;SDS011;6472;52.328;13.070;2022-10-16T08:49:55;2.05;;;1.50;;
12814;SDS011;6472;52.328;13.070;2022-10-16T08:52:29;2.50;;;1.30;;
12814;SDS011;6472;52.328;13.070;2022-10-16T08:55:01;2.25;;;1.33;;
12814;SDS011;6472;52.328;13.070;2022-10-16T08:57:31;1.85;;;1.30;;
12814;SDS011;6472;52.328;13.070;2022-10-16T08:59:59;1.23;;;1.13;;
12814;SDS011;6472;52.328;13.070;2022-10-16T09:02:37;1.20;;;1.17;;
12814;SDS011;6472;52.328;13.070;2022-10-16T09:05:11;1.73;;;1.10;;
12814;SDS011;6472;52.328;13.070;2022-10-16T09:07:53;0.90;;;0.90;;
12814;SDS011;6472;52.328;13.070;2022-10-16T09:10:35;2.58;;;0.70;;
12814;SDS011;6472;52.328;13.070;2022-10-16T09:13:11;0.90;;;0.90;;
12814;SDS011;6472;52.328;13.070;2022-10-16T09:15:46;1.25;;;1.10;;
12814;SDS011;6472;52.328;13.070;2022-10-16T09:18:24;0.70;;;0.70;;
12814;SDS011;6472;52.328;13.070;2022-10-16T09:20:59;0.80;;;0.80;;
12814;SDS011;6472;52.328;13.070;2022-10-16T09:23:36;1.73;;;0.82;;
12814;SDS011;6472;52.328;13.070;2022-10-16T09:26:05;1.15;;;1.10;;
12814;SDS011;6472;52.328;13.070;2022-10-16T09:28:37;0.95;;;0.95;;
12814;SDS011;6472;52.328;13.070;2022-10-16T09:31:07;1.25;;;1.15;;
12814;SDS011;6472;52.328;13.070;2022-10-16T09:33:42;3.45;;;1.10;;
12814;SDS011;6472;52.328;13.070;2022-10-16T09:36:12;0.70;;;0.68;;
12814;SDS011;6472;52.328;13.070;2022-10-16T09:38:42;0.85;;;0.85;;
12814;SDS011;6472;52.328;13.070;2022-10-16T09:41:14;0.80;;;0.80;;
12814;SDS011;6472;52.328;13.070;2022-10-16T09:43:46;1.23;;;1.00;;
12814;SDS011;6472;52.328;13.070;2022-10-16T09:46:21;3.13;;;1.08;;
12814;SDS011;6472;52.328;13.070;2022-10-16T09:48:53;0.60;;;0.60;;
12814;SDS011;6472;52.328;13.070;2022-10-16T09:51:24;1.85;;;0.85;;
12814;SDS011;6472;52.328;13.070;2022-10-16T09:53:58;1.05;;;1.00;;
12814;SDS011;6472;52.328;13.070;2022-10-16T09:56:28;7.30;;;1.65;;
12814;SDS011;6472;52.328;13.070;2022-10-16T09:58:59;3.00;;;0.82;;
12814;SDS011;6472;52.328;13.070;2022-10-16T10:01:30;0.82;;;0.82;;
12814;SDS011;6472;52.328;13.070;2022-10-16T10:04:03;2.38;;;1.08;;
12814;SDS011;6472;52.328;13.070;2022-10-16T10:06:32;0.90;;;0.90;;
12814;SDS011;6472;52.328;13.070;2022-10-16T10:09:14;0.57;;;0.57;;
12814;SDS011;6472;52.328;13.070;2022-10-16T10:11:52;0.90;;;0.90;;
12814;SDS011;6472;52.328;13.070;2022-10-16T10:14:26;1.23;;;1.13;;
12814;SDS011;6472;52.328;13.070;2022-10-16T10:17:08;0.55;;;0.55;;
12814;SDS011;6472;52.328;13.070;2022-10-16T10:19:39;0.70;;;0.70;;
12814;SDS011;6472;52.328;13.070;2022-10-16T10:25:14;0.70;;;0.70;;
12814;SDS011;6472;52.328;13.070;2022-10-16T10:27:49;0.82;;;0.82;;
12814;SDS011;6472;52.328;13.070;2022-10-16T10:30:29;1.42;;;1.00;;
12814;SDS011;6472;52.328;13.070;2022-10-16T10:33:09;0.70;;;0.70;;
12814;SDS011;6472;52.328;13.070;2022-10-16T10:35:48;1.20;;;0.57;;
12814;SDS011;6472;52.328;13.070;2022-10-16T10:38:25;0.65;;;0.65;;
12814;SDS011;6472;52.328;13.070;2022-10-16T10:41:02;0.95;;;0.95;;
12814;SDS011;6472;52.328;13.070;2022-10-16T10:43:44;0.88;;;0.88;;
12814;SDS011;6472;52.328;13.070;2022-10-16T10:46:23;1.02;;;1.02;;
12814;SDS011;6472;52.328;13.070;2022-10-16T10:49:03;1.45;;;0.65;;
12814;SDS011;6472;52.328;13.070;2022-10-16T10:51:49;1.73;;;0.85;;
12814;SDS011;6472;52.328;13.070;2022-10-16T10:54:26;0.70;;;0.70;;
12814;SDS011;6472;52.328;13.070;2022-10-16T10:57:04;0.65;;;0.65;;
12814;SDS011;6472;52.328;13.070;2022-10-16T10:59:41;0.50;;;0.50;;
12814;SDS011;6472;52.328;13.070;2022-10-16T11:02:23;2.17;;;1.23;;
12814;SDS011;6472;52.328;13.070;2022-10-16T11:05:07;0.50;;;0.50;;
12814;SDS011;6472;52.328;13.070;2022-10-16T11:07:51;0.40;;;0.40;;
12814;SDS011;6472;52.328;13.070;2022-10-16T11:10:23;0.40;;;0.40;;
12814;SDS011;6472;52.328;13.070;2022-10-16T11:12:58;1.42;;;1.33;;
12814;SDS011;6472;52.328;13.070;2022-10-16T11:15:36;1.08;;;0.50;;
12814;SDS011;6472;52.328;13.070;2022-10-16T11:18:11;0.65;;;0.65;;
12814;SDS011;6472;52.328;13.070;2022-10-16T11:20:45;1.85;;;0.80;;
12814;SDS011;6472;52.328;13.070;2022-10-16T11:23:20;0.60;;;0.60;;
12814;SDS011;6472;52.328;13.070;2022-10-16T11:25:53;2.72;;;0.70;;
12814;SDS011;6472;52.328;13.070;2022-10-16T11:28:27;1.23;;;0.55;;
12814;SDS011;6472;52.328;13.070;2022-10-16T11:31:00;0.50;;;0.50;;
12814;SDS011;6472;52.328;13.070;2022-10-16T11:33:36;0.60;;;0.60;;
12814;SDS011;6472;52.328;13.070;2022-10-16T11:36:09;2.63;;;0.32;;
12814;SDS011;6472;52.328;13.070;2022-10-16T11:38:42;0.50;;;0.50;;
12814;SDS011;6472;52.328;13.070;2022-10-16T11:41:18;0.45;;;0.43;;
12814;SDS011;6472;52.328;13.070;2022-10-16T11:43:56;1.80;;;0.60;;
12814;SDS011;6472;52.328;13.070;2022-10-16T11:46:32;0.50;;;0.50;;
12814;SDS011;6472;52.328;13.070;2022-10-16T11:49:24;0.60;;;0.50;;
12814;SDS011;6472;52.328;13.070;2022-10-16T11:51:55;0.30;;;0.30;;
12814;SDS011;6472;52.328;13.070;2022-10-16T11:54:35;3.45;;;0.57;;
12814;SDS011;6472;52.328;13.070;2022-10-16T11:57:09;0.40;;;0.40;;
12814;SDS011;6472;52.328;13.070;2022-10-16T11:59:43;0.60;;;0.60;;
12814;SDS011;6472;52.328;13.070;2022-10-16T12:02:29;0.90;;;0.90;;
12814;SDS011;6472;52.328;13.070;2022-10-16T12:05:14;0.63;;;0.38;;
12814;SDS011;6472;52.328;13.070;2022-10-16T12:07:51;0.45;;;0.45;;
12814;SDS011;6472;52.328;13.070;2022-10-16T12:10:28;1.00;;;0.60;;
12814;SDS011;6472;52.328;13.070;2022-10-16T12:12:58;0.68;;;0.68;;
12814;SDS011;6472;52.328;13.070;2022-10-16T12:15:28;0.43;;;0.43;;
12814;SDS011;6472;52.328;13.070;2022-10-16T12:18:20;0.43;;;0.43;;
12814;SDS011;6472;52.328;13.070;2022-10-16T12:20:54;0.30;;;0.30;;
12814;SDS011;6472;52.328;13.070;2022-10-16T12:23:25;0.55;;;0.55;;
12814;SDS011;6472;52.328;13.070;2022-10-16T12:25:54;0.40;;;0.40;;
12814;SDS011;6472;52.328;13.070;2022-10-16T12:28:26;0.70;;;0.70;;
12814;SDS011;6472;52.328;13.070;2022-10-16T12:30:57;0.32;;;0.32;;
12814;SDS011;6472;52.328;13.070;2022-10-16T12:33:29;0.50;;;0.50;;
12814;SDS011;6472;52.328;13.070;2022-10-16T12:35:59;0.95;;;0.40;;
12814;SDS011;6472;52.328;13.070;2022-10-16T12:38:31;0.43;;;0.43;;
12814;SDS011;6472;52.328;13.070;2022-10-16T12:41:05;0.40;;;0.40;;
12814;SDS011;6472;52.328;13.070;2022-10-16T12:43:37;0.60;;;0.38;;
12814;SDS011;6472;52.328;13.070;2022-10-16T12:46:23;0.35;;;0.30;;
12814;SDS011;6472;52.328;13.070;2022-10-16T12:49:21;0.30;;;0.30;;
12814;SDS011;6472;52.328;13.070;2022-10-16T12:51:56;0.63;;;0.63;;
12814;SDS011;6472;52.328;13.070;2022-10-16T12:54:27;1.48;;;0.47;;
12814;SDS011;6472;52.328;13.070;2022-10-16T12:57:06;0.70;;;0.70;;
12814;SDS011;6472;52.328;13.070;2022-10-16T12:59:42;1.25;;;0.90;;
12814;SDS011;6472;52.328;13.070;2022-10-16T13:02:24;0.40;;;0.40;;
12814;SDS011;6472;52.328;13.070;2022-10-16T13:05:15;0.90;;;0.90;;
12814;SDS011;6472;52.328;13.070;2022-10-16T13:07:55;0.60;;;0.60;;
12814;SDS011;6472;52.328;13.070;2022-10-16T13:10:31;0.40;;;0.40;;
12814;SDS011;6472;52.328;13.070;2022-10-16T13:13:18;1.27;;;0.50;;
12814;SDS011;6472;52.328;13.070;2022-10-16T13:16:05;0.47;;;0.47;;
12814;SDS011;6472;52.328;13.070;2022-10-16T13:18:47;0.50;;;0.50;;
12814;SDS011;6472;52.328;13.070;2022-10-16T13:21:31;0.45;;;0.30;;
12814;SDS011;6472;52.328;13.070;2022-10-16T13:24:10;0.90;;;0.90;;
12814;SDS011;6472;52.328;13.070;2022-10-16T13:26:54;0.30;;;0.30;;
12814;SDS011;6472;52.328;13.070;2022-10-16T13:29:29;1.58;;;0.40;;
12814;SDS011;6472;52.328;13.070;2022-10-16T13:31:58;0.57;;;0.57;;
12814;SDS011;6472;52.328;13.070;2022-10-16T13:34:30;0.70;;;0.70;;
12814;SDS011;6472;52.328;13.070;2022-10-16T13:36:57;0.63;;;0.63;;
12814;SDS011;6472;52.328;13.070;2022-10-16T13:39:26;0.40;;;0.40;;
12814;SDS011;6472;52.328;13.070;2022-10-16T13:42:00;0.45;;;0.40;;
12814;SDS011;6472;52.328;13.070;2022-10-16T13:44:36;1.48;;;0.57;;
12814;SDS011;6472;52.328;13.070;2022-10-16T13:47:16;0.30;;;0.30;;
12814;SDS011;6472;52.328;13.070;2022-10-16T13:49:58;0.80;;;0.80;;
12814;SDS011;6472;52.328;13.070;2022-10-16T13:52:27;0.30;;;0.30;;
12814;SDS011;6472;52.328;13.070;2022-10-16T13:54:56;0.88;;;0.80;;
12814;SDS011;6472;52.328;13.070;2022-10-16T13:57:27;1.65;;;0.57;;
12814;SDS011;6472;52.328;13.070;2022-10-16T13:59:56;0.63;;;0.43;;
12814;SDS011;6472;52.328;13.070;2022-10-16T14:02:25;0.50;;;0.50;;
12814;SDS011;6472;52.328;13.070;2022-10-16T14:04:57;0.40;;;0.40;;
12814;SDS011;6472;52.328;13.070;2022-10-16T14:07:26;0.30;;;0.30;;
12814;SDS011;6472;52.328;13.070;2022-10-16T14:09:55;0.77;;;0.77;;
12814;SDS011;6472;52.328;13.070;2022-10-16T14:12:27;0.63;;;0.60;;
12814;SDS011;6472;52.328;13.070;2022-10-16T14:14:57;0.50;;;0.50;;
12814;SDS011;6472;52.328;13.070;2022-10-16T14:17:27;1.38;;;0.60;;
12814;SDS011;6472;52.328;13.070;2022-10-16T14:19:59;1.85;;;0.90;;
12814;SDS011;6472;52.328;13.070;2022-10-16T14:22:32;1.27;;;0.85;;
12814;SDS011;6472;52.328;13.070;2022-10-16T14:25:02;4.97;;;3.40;;
12814;SDS011;6472;52.328;13.070;2022-10-16T14:27:56;1.90;;;1.40;;
12814;SDS011;6472;52.328;13.070;2022-10-16T14:30:31;0.70;;;0.70;;
12814;SDS011;6472;52.328;13.070;2022-10-16T14:33:33;0.50;;;0.50;;
12814;SDS011;6472;52.328;13.070;2022-10-16T14:36:04;0.73;;;0.63;;
12814;SDS011;6472;52.328;13.070;2022-10-16T14:38:38;0.57;;;0.50;;
12814;SDS011;6472;52.328;13.070;2022-10-16T14:41:07;0.60;;;0.60;;
12814;SDS011;6472;52.328;13.070;2022-10-16T14:43:36;0.75;;;0.65;;
12814;SDS011;6472;52.328;13.070;2022-10-16T14:46:09;9.18;;;5.32;;
12814;SDS011;6472;52.328;13.070;2022-10-16T14:48:40;6.35;;;3.97;;
12814;SDS011;6472;52.328;13.070;2022-10-16T14:51:12;3.13;;;2.80;;
12814;SDS011;6472;52.328;13.070;2022-10-16T14:53:41;9.85;;;6.03;;
12814;SDS011;6472;52.328;13.070;2022-10-16T14:56:14;6.25;;;3.90;;
12814;SDS011;6472;52.328;13.070;2022-10-16T14:58:45;2.53;;;1.80;;
12814;SDS011;6472;52.328;13.070;2022-10-16T15:01:13;8.02;;;4.63;;
12814;SDS011;6472;52.328;13.070;2022-10-16T15:03:41;2.40;;;1.98;;
12814;SDS011;6472;52.328;13.070;2022-10-16T15:06:11;1.73;;;1.50;;
12814;SDS011;6472;52.328;13.070;2022-10-16T15:08:40;4.38;;;1.55;;
12814;SDS011;6472;52.328;13.070;2022-10-16T15:11:09;2.45;;;1.05;;
12814;SDS011;6472;52.328;13.070;2022-10-16T15:13:39;0.73;;;0.73;;
12814;SDS011;6472;52.328;13.070;2022-10-16T15:16:08;1.17;;;1.08;;
12814;SDS011;6472;52.328;13.070;2022-10-16T15:18:38;1.85;;;1.48;;
12814;SDS011;6472;52.328;13.070;2022-10-16T15:21:06;1.58;;;1.33;;
12814;SDS011;6472;52.328;13.070;2022-10-16T15:23:36;0.85;;;0.85;;